sensor_id;sensor_type;location;lat;lon;timestamp;pressure;altitude;pressure_sealevel;temperature
71649;BMP180;59492;45.638;11.714;2023-02-13T00:01:49;103171.60;;;16.46
71649;BMP180;59492;45.638;11.714;2023-02-13T00:04:15;103174.60;;;16.44
71649;BMP180;59492;45.638;11.714;2023-02-13T00:06:41;103174.00;;;16.42
71649;BMP180;59492;45.638;11.714;2023-02-13T00:09:06;103172.40;;;16.40
71649;BMP180;59492;45.638;11.714;2023-02-13T00:11:36;103173.00;;;16.40
71649;BMP180;59492;45.638;11.714;2023-02-13T00:14:04;103179.00;;;16.40
71649;BMP180;59492;45.638;11.714;2023-02-13T00:16:30;103179.80;;;16.40
71649;BMP180;59492;45.638;11.714;2023-02-13T00:18:58;103181.40;;;16.40
71649;BMP180;59492;45.638;11.714;2023-02-13T00:21:24;103181.20;;;16.40
71649;BMP180;59492;45.638;11.714;2023-02-13T00:23:50;103181.40;;;16.40
71649;BMP180;59492;45.638;11.714;2023-02-13T00:26:18;103179.20;;;16.40
71649;BMP180;59492;45.638;11.714;2023-02-13T00:28:44;103176.20;;;16.40
71649;BMP180;59492;45.638;11.714;2023-02-13T00:31:12;103175.60;;;16.38
71649;BMP180;59492;45.638;11.714;2023-02-13T00:33:39;103177.60;;;16.36
71649;BMP180;59492;45.638;11.714;2023-02-13T00:36:11;103178.40;;;16.36
71649;BMP180;59492;45.638;11.714;2023-02-13T00:38:54;103178.00;;;16.30
71649;BMP180;59492;45.638;11.714;2023-02-13T00:41:21;103180.20;;;16.30
71649;BMP180;59492;45.638;11.714;2023-02-13T00:43:48;103181.20;;;16.30
71649;BMP180;59492;45.638;11.714;2023-02-13T00:46:17;103190.80;;;16.30
71649;BMP180;59492;45.638;11.714;2023-02-13T00:48:43;103192.00;;;16.30
71649;BMP180;59492;45.638;11.714;2023-02-13T00:51:09;103199.60;;;16.30
71649;BMP180;59492;45.638;11.714;2023-02-13T00:53:35;103195.00;;;16.30
71649;BMP180;59492;45.638;11.714;2023-02-13T00:56:02;103189.20;;;16.30
71649;BMP180;59492;45.638;11.714;2023-02-13T00:58:28;103194.40;;;16.30
71649;BMP180;59492;45.638;11.714;2023-02-13T01:00:57;103195.00;;;16.30
71649;BMP180;59492;45.638;11.714;2023-02-13T01:03:23;103195.80;;;16.28
71649;BMP180;59492;45.638;11.714;2023-02-13T01:05:50;103196.80;;;16.26
71649;BMP180;59492;45.638;11.714;2023-02-13T01:08:17;103198.00;;;16.26
71649;BMP180;59492;45.638;11.714;2023-02-13T01:10:44;103193.60;;;16.24
71649;BMP180;59492;45.638;11.714;2023-02-13T01:13:11;103194.40;;;16.20
71649;BMP180;59492;45.638;11.714;2023-02-13T01:15:38;103197.60;;;16.22
71649;BMP180;59492;45.638;11.714;2023-02-13T01:18:04;103198.20;;;16.20
71649;BMP180;59492;45.638;11.714;2023-02-13T01:20:30;103200.40;;;16.20
71649;BMP180;59492;45.638;11.714;2023-02-13T01:22:56;103195.60;;;16.20
71649;BMP180;59492;45.638;11.714;2023-02-13T01:25:22;103199.40;;;16.20
71649;BMP180;59492;45.638;11.714;2023-02-13T01:27:48;103200.20;;;16.20
71649;BMP180;59492;45.638;11.714;2023-02-13T01:30:15;103200.40;;;16.20
71649;BMP180;59492;45.638;11.714;2023-02-13T01:32:44;103198.00;;;16.18
71649;BMP180;59492;45.638;11.714;2023-02-13T01:35:11;103197.20;;;16.18
71649;BMP180;59492;45.638;11.714;2023-02-13T01:37:37;103199.80;;;16.12
71649;BMP180;59492;45.638;11.714;2023-02-13T01:40:05;103199.60;;;16.12
71649;BMP180;59492;45.638;11.714;2023-02-13T01:42:33;103201.00;;;16.10
71649;BMP180;59492;45.638;11.714;2023-02-13T01:45:03;103196.60;;;16.10
71649;BMP180;59492;45.638;11.714;2023-02-13T01:47:39;103196.00;;;16.10
71649;BMP180;59492;45.638;11.714;2023-02-13T01:52:49;103196.60;;;16.10
71649;BMP180;59492;45.638;11.714;2023-02-13T01:55:17;103195.80;;;16.10
71649;BMP180;59492;45.638;11.714;2023-02-13T01:57:48;103196.40;;;16.10
71649;BMP180;59492;45.638;11.714;2023-02-13T02:00:22;103188.20;;;16.10
71649;BMP180;59492;45.638;11.714;2023-02-13T02:02:54;103186.40;;;16.10
71649;BMP180;59492;45.638;11.714;2023-02-13T02:05:26;103187.00;;;16.04
71649;BMP180;59492;45.638;11.714;2023-02-13T02:07:55;103190.00;;;16.04
71649;BMP180;59492;45.638;11.714;2023-02-13T02:10:24;103186.60;;;16.02
71649;BMP180;59492;45.638;11.714;2023-02-13T02:13:12;103189.20;;;16.02
71649;BMP180;59492;45.638;11.714;2023-02-13T02:15:41;103185.20;;;16.00
71649;BMP180;59492;45.638;11.714;2023-02-13T02:18:15;103184.20;;;16.00
71649;BMP180;59492;45.638;11.714;2023-02-13T02:32:12;103173.80;;;15.90
71649;BMP180;59492;45.638;11.714;2023-02-13T02:35:18;103171.00;;;15.90
71649;BMP180;59492;45.638;11.714;2023-02-13T02:43:41;103173.80;;;15.90
71649;BMP180;59492;45.638;11.714;2023-02-13T02:46:28;103171.00;;;15.90
71649;BMP180;59492;45.638;11.714;2023-02-13T02:49:03;103164.40;;;15.90
71649;BMP180;59492;45.638;11.714;2023-02-13T02:52:14;103166.00;;;15.90
71649;BMP180;59492;45.638;11.714;2023-02-13T02:54:53;103169.20;;;15.90
71649;BMP180;59492;45.638;11.714;2023-02-13T02:57:33;103173.40;;;15.90
71649;BMP180;59492;45.638;11.714;2023-02-13T03:00:21;103167.20;;;15.90
71649;BMP180;59492;45.638;11.714;2023-02-13T03:03:15;103168.20;;;15.90
71649;BMP180;59492;45.638;11.714;2023-02-13T03:06:02;103163.00;;;15.88
71649;BMP180;59492;45.638;11.714;2023-02-13T03:08:35;103164.60;;;15.90
71649;BMP180;59492;45.638;11.714;2023-02-13T03:11:40;103162.40;;;15.86
71649;BMP180;59492;45.638;11.714;2023-02-13T03:14:29;103165.40;;;15.80
71649;BMP180;59492;45.638;11.714;2023-02-13T03:16:58;103170.20;;;15.88
71649;BMP180;59492;45.638;11.714;2023-02-13T03:28:09;103166.80;;;15.80
71649;BMP180;59492;45.638;11.714;2023-02-13T03:31:05;103167.80;;;15.80
71649;BMP180;59492;45.638;11.714;2023-02-13T03:33:50;103170.60;;;15.80
71649;BMP180;59492;45.638;11.714;2023-02-13T03:36:58;103167.80;;;15.80
71649;BMP180;59492;45.638;11.714;2023-02-13T03:40:03;103169.00;;;15.76
71649;BMP180;59492;45.638;11.714;2023-02-13T03:42:45;103172.60;;;15.80
71649;BMP180;59492;45.638;11.714;2023-02-13T03:45:32;103172.80;;;15.80
71649;BMP180;59492;45.638;11.714;2023-02-13T03:48:35;103170.80;;;15.74
71649;BMP180;59492;45.638;11.714;2023-02-13T03:51:38;103173.40;;;15.74
71649;BMP180;59492;45.638;11.714;2023-02-13T03:54:21;103172.00;;;15.76
71649;BMP180;59492;45.638;11.714;2023-02-13T03:57:08;103177.20;;;15.70
71649;BMP180;59492;45.638;11.714;2023-02-13T03:59:56;103179.00;;;15.70
71649;BMP180;59492;45.638;11.714;2023-02-13T04:02:26;103182.20;;;15.76
71649;BMP180;59492;45.638;11.714;2023-02-13T04:04:59;103181.60;;;15.76
71649;BMP180;59492;45.638;11.714;2023-02-13T04:07:49;103180.80;;;15.74
71649;BMP180;59492;45.638;11.714;2023-02-13T04:10:16;103181.20;;;15.70
71649;BMP180;59492;45.638;11.714;2023-02-13T04:13:08;103183.40;;;15.74
71649;BMP180;59492;45.638;11.714;2023-02-13T04:15:57;103183.00;;;15.70
71649;BMP180;59492;45.638;11.714;2023-02-13T04:18:30;103187.40;;;15.70
71649;BMP180;59492;45.638;11.714;2023-02-13T04:21:00;103182.60;;;15.70
71649;BMP180;59492;45.638;11.714;2023-02-13T04:23:32;103180.00;;;15.70
71649;BMP180;59492;45.638;11.714;2023-02-13T04:26:05;103181.00;;;15.70
71649;BMP180;59492;45.638;11.714;2023-02-13T04:28:31;103186.60;;;15.70
71649;BMP180;59492;45.638;11.714;2023-02-13T04:30:56;103183.20;;;15.70
71649;BMP180;59492;45.638;11.714;2023-02-13T04:33:22;103182.00;;;15.70
71649;BMP180;59492;45.638;11.714;2023-02-13T04:35:58;103182.60;;;15.70
71649;BMP180;59492;45.638;11.714;2023-02-13T04:38:24;103179.20;;;15.70
71649;BMP180;59492;45.638;11.714;2023-02-13T04:40:49;103182.80;;;15.70
71649;BMP180;59492;45.638;11.714;2023-02-13T04:43:18;103179.00;;;15.70
71649;BMP180;59492;45.638;11.714;2023-02-13T04:45:48;103179.20;;;15.70
71649;BMP180;59492;45.638;11.714;2023-02-13T04:48:14;103175.00;;;15.70
71649;BMP180;59492;45.638;11.714;2023-02-13T04:50:40;103177.20;;;15.70
71649;BMP180;59492;45.638;11.714;2023-02-13T04:53:08;103186.00;;;15.70
71649;BMP180;59492;45.638;11.714;2023-02-13T04:55:36;103181.00;;;15.70
71649;BMP180;59492;45.638;11.714;2023-02-13T04:58:05;103185.60;;;15.66
71649;BMP180;59492;45.638;11.714;2023-02-13T05:00:34;103179.80;;;15.68
71649;BMP180;59492;45.638;11.714;2023-02-13T05:03:04;103177.60;;;15.66
71649;BMP180;59492;45.638;11.714;2023-02-13T05:05:30;103180.80;;;15.64
71649;BMP180;59492;45.638;11.714;2023-02-13T05:07:56;103188.20;;;15.60
71649;BMP180;59492;45.638;11.714;2023-02-13T05:10:33;103184.00;;;15.60
71649;BMP180;59492;45.638;11.714;2023-02-13T05:12:59;103185.60;;;15.60
71649;BMP180;59492;45.638;11.714;2023-02-13T05:15:25;103185.00;;;15.60
71649;BMP180;59492;45.638;11.714;2023-02-13T05:17:51;103184.40;;;15.60
71649;BMP180;59492;45.638;11.714;2023-02-13T05:20:19;103190.40;;;15.60
71649;BMP180;59492;45.638;11.714;2023-02-13T05:22:50;103188.80;;;15.60
71649;BMP180;59492;45.638;11.714;2023-02-13T05:25:36;103185.80;;;15.60
71649;BMP180;59492;45.638;11.714;2023-02-13T05:28:05;103182.40;;;15.60
71649;BMP180;59492;45.638;11.714;2023-02-13T05:30:54;103183.60;;;15.60
71649;BMP180;59492;45.638;11.714;2023-02-13T05:33:19;103187.40;;;15.60
71649;BMP180;59492;45.638;11.714;2023-02-13T05:35:45;103189.00;;;15.60
71649;BMP180;59492;45.638;11.714;2023-02-13T05:38:11;103187.60;;;15.60
71649;BMP180;59492;45.638;11.714;2023-02-13T05:40:37;103184.20;;;15.60
71649;BMP180;59492;45.638;11.714;2023-02-13T05:43:03;103191.40;;;15.60
71649;BMP180;59492;45.638;11.714;2023-02-13T05:45:37;103191.20;;;15.60
71649;BMP180;59492;45.638;11.714;2023-02-13T05:48:03;103191.20;;;15.54
71649;BMP180;59492;45.638;11.714;2023-02-13T05:50:31;103189.80;;;15.56
71649;BMP180;59492;45.638;11.714;2023-02-13T05:52:57;103189.20;;;15.56
71649;BMP180;59492;45.638;11.714;2023-02-13T05:55:22;103187.00;;;15.56
71649;BMP180;59492;45.638;11.714;2023-02-13T05:57:48;103186.60;;;15.54
71649;BMP180;59492;45.638;11.714;2023-02-13T06:00:15;103187.20;;;15.50
71649;BMP180;59492;45.638;11.714;2023-02-13T06:02:46;103188.80;;;15.50
71649;BMP180;59492;45.638;11.714;2023-02-13T06:05:11;103185.20;;;15.50
71649;BMP180;59492;45.638;11.714;2023-02-13T06:07:40;103191.60;;;15.50
71649;BMP180;59492;45.638;11.714;2023-02-13T06:10:06;103189.60;;;15.50
71649;BMP180;59492;45.638;11.714;2023-02-13T06:12:32;103191.20;;;15.50
71649;BMP180;59492;45.638;11.714;2023-02-13T06:15:01;103192.00;;;15.50
71649;BMP180;59492;45.638;11.714;2023-02-13T06:17:29;103199.40;;;15.50
71649;BMP180;59492;45.638;11.714;2023-02-13T06:19:55;103202.60;;;15.50
71649;BMP180;59492;45.638;11.714;2023-02-13T06:22:21;103208.40;;;15.50
71649;BMP180;59492;45.638;11.714;2023-02-13T06:24:47;103206.40;;;15.50
71649;BMP180;59492;45.638;11.714;2023-02-13T06:27:12;103209.40;;;15.50
71649;BMP180;59492;45.638;11.714;2023-02-13T06:29:38;103211.20;;;15.50
71649;BMP180;59492;45.638;11.714;2023-02-13T06:32:03;103216.40;;;15.50
71649;BMP180;59492;45.638;11.714;2023-02-13T06:34:29;103217.20;;;15.50
71649;BMP180;59492;45.638;11.714;2023-02-13T06:36:55;103220.80;;;15.50
71649;BMP180;59492;45.638;11.714;2023-02-13T06:39:21;103219.80;;;15.50
71649;BMP180;59492;45.638;11.714;2023-02-13T06:41:59;103218.40;;;15.50
71649;BMP180;59492;45.638;11.714;2023-02-13T06:44:27;103220.00;;;15.50
71649;BMP180;59492;45.638;11.714;2023-02-13T06:47:13;103222.80;;;15.50
71649;BMP180;59492;45.638;11.714;2023-02-13T06:49:46;103224.00;;;15.50
71649;BMP180;59492;45.638;11.714;2023-02-13T06:52:12;103224.40;;;15.52
71649;BMP180;59492;45.638;11.714;2023-02-13T06:54:38;103227.00;;;15.50
71649;BMP180;59492;45.638;11.714;2023-02-13T06:57:10;103221.80;;;15.62
71649;BMP180;59492;45.638;11.714;2023-02-13T06:59:38;103227.80;;;15.70
71649;BMP180;59492;45.638;11.714;2023-02-13T07:02:13;103228.20;;;15.80
71649;BMP180;59492;45.638;11.714;2023-02-13T07:04:39;103228.80;;;15.88
71649;BMP180;59492;45.638;11.714;2023-02-13T07:07:07;103231.40;;;15.90
71649;BMP180;59492;45.638;11.714;2023-02-13T07:09:44;103233.00;;;15.90
71649;BMP180;59492;45.638;11.714;2023-02-13T07:12:13;103232.60;;;16.04
71649;BMP180;59492;45.638;11.714;2023-02-13T07:14:43;103231.20;;;16.10
71649;BMP180;59492;45.638;11.714;2023-02-13T07:17:21;103232.60;;;16.04
71649;BMP180;59492;45.638;11.714;2023-02-13T07:19:48;103234.00;;;16.10
71649;BMP180;59492;45.638;11.714;2023-02-13T07:22:21;103234.20;;;16.10
71649;BMP180;59492;45.638;11.714;2023-02-13T07:24:59;103232.80;;;16.14
71649;BMP180;59492;45.638;11.714;2023-02-13T07:27:28;103230.60;;;16.22
71649;BMP180;59492;45.638;11.714;2023-02-13T07:29:55;103233.00;;;16.30
71649;BMP180;59492;45.638;11.714;2023-02-13T07:32:25;103228.40;;;16.40
71649;BMP180;59492;45.638;11.714;2023-02-13T07:34:54;103228.20;;;16.50
71649;BMP180;59492;45.638;11.714;2023-02-13T07:37:22;103225.00;;;16.50
71649;BMP180;59492;45.638;11.714;2023-02-13T07:39:56;103222.00;;;16.60
71649;BMP180;59492;45.638;11.714;2023-02-13T07:42:22;103224.40;;;16.80
71649;BMP180;59492;45.638;11.714;2023-02-13T07:44:48;103222.60;;;16.98
71649;BMP180;59492;45.638;11.714;2023-02-13T07:47:24;103225.60;;;17.26
71649;BMP180;59492;45.638;11.714;2023-02-13T07:49:53;103225.00;;;17.66
71649;BMP180;59492;45.638;11.714;2023-02-13T07:52:19;103221.80;;;17.88
71649;BMP180;59492;45.638;11.714;2023-02-13T07:54:45;103218.00;;;18.06
71649;BMP180;59492;45.638;11.714;2023-02-13T07:57:16;103224.20;;;18.22
71649;BMP180;59492;45.638;11.714;2023-02-13T07:59:51;103221.80;;;18.44
71649;BMP180;59492;45.638;11.714;2023-02-13T08:02:17;103217.00;;;18.72
71649;BMP180;59492;45.638;11.714;2023-02-13T08:04:42;103215.40;;;18.96
71649;BMP180;59492;45.638;11.714;2023-02-13T08:07:11;103222.00;;;19.24
71649;BMP180;59492;45.638;11.714;2023-02-13T08:09:37;103221.80;;;19.46
71649;BMP180;59492;45.638;11.714;2023-02-13T08:12:22;103220.40;;;19.72
71649;BMP180;59492;45.638;11.714;2023-02-13T08:14:48;103218.20;;;19.90
71649;BMP180;59492;45.638;11.714;2023-02-13T08:17:13;103219.20;;;20.08
71649;BMP180;59492;45.638;11.714;2023-02-13T08:19:39;103219.60;;;20.26
71649;BMP180;59492;45.638;11.714;2023-02-13T08:22:05;103220.80;;;20.42
71649;BMP180;59492;45.638;11.714;2023-02-13T08:24:31;103218.40;;;20.58
71649;BMP180;59492;45.638;11.714;2023-02-13T08:26:57;103221.40;;;20.76
71649;BMP180;59492;45.638;11.714;2023-02-13T08:29:23;103223.60;;;20.92
71649;BMP180;59492;45.638;11.714;2023-02-13T08:31:51;103220.60;;;21.08
71649;BMP180;59492;45.638;11.714;2023-02-13T08:34:17;103217.80;;;21.26
71649;BMP180;59492;45.638;11.714;2023-02-13T08:36:42;103212.20;;;21.38
71649;BMP180;59492;45.638;11.714;2023-02-13T08:39:09;103213.60;;;21.54
71649;BMP180;59492;45.638;11.714;2023-02-13T08:41:35;103214.20;;;21.64
71649;BMP180;59492;45.638;11.714;2023-02-13T08:44:00;103212.20;;;21.70
71649;BMP180;59492;45.638;11.714;2023-02-13T08:46:26;103210.80;;;21.70
71649;BMP180;59492;45.638;11.714;2023-02-13T08:48:51;103212.20;;;21.66
71649;BMP180;59492;45.638;11.714;2023-02-13T08:51:17;103213.60;;;21.60
71649;BMP180;59492;45.638;11.714;2023-02-13T08:53:43;103219.00;;;21.60
71649;BMP180;59492;45.638;11.714;2023-02-13T08:56:09;103223.00;;;21.58
71649;BMP180;59492;45.638;11.714;2023-02-13T08:58:35;103224.40;;;21.60
71649;BMP180;59492;45.638;11.714;2023-02-13T09:01:06;103228.00;;;21.60
71649;BMP180;59492;45.638;11.714;2023-02-13T09:03:32;103230.00;;;21.60
71649;BMP180;59492;45.638;11.714;2023-02-13T09:05:59;103228.60;;;21.60
71649;BMP180;59492;45.638;11.714;2023-02-13T09:08:25;103224.60;;;21.60
71649;BMP180;59492;45.638;11.714;2023-02-13T09:10:58;103221.60;;;21.60
71649;BMP180;59492;45.638;11.714;2023-02-13T09:13:25;103223.00;;;21.60
71649;BMP180;59492;45.638;11.714;2023-02-13T09:15:50;103225.60;;;21.60
71649;BMP180;59492;45.638;11.714;2023-02-13T09:18:16;103230.00;;;21.60
71649;BMP180;59492;45.638;11.714;2023-02-13T09:20:41;103222.60;;;21.60
71649;BMP180;59492;45.638;11.714;2023-02-13T09:23:07;103222.20;;;21.60
71649;BMP180;59492;45.638;11.714;2023-02-13T09:25:32;103226.20;;;21.60
71649;BMP180;59492;45.638;11.714;2023-02-13T09:27:58;103229.60;;;21.60
71649;BMP180;59492;45.638;11.714;2023-02-13T09:30:24;103229.20;;;21.62
71649;BMP180;59492;45.638;11.714;2023-02-13T09:32:51;103226.20;;;21.62
71649;BMP180;59492;45.638;11.714;2023-02-13T09:35:19;103218.80;;;21.64
71649;BMP180;59492;45.638;11.714;2023-02-13T09:37:45;103221.80;;;21.64
71649;BMP180;59492;45.638;11.714;2023-02-13T09:40:18;103225.60;;;21.62
71649;BMP180;59492;45.638;11.714;2023-02-13T09:42:46;103224.00;;;21.68
71649;BMP180;59492;45.638;11.714;2023-02-13T09:45:13;103217.00;;;21.64
71649;BMP180;59492;45.638;11.714;2023-02-13T09:47:41;103215.00;;;21.60
71649;BMP180;59492;45.638;11.714;2023-02-13T09:52:43;103227.00;;;21.62
71649;BMP180;59492;45.638;11.714;2023-02-13T09:55:15;103222.40;;;21.66
71649;BMP180;59492;45.638;11.714;2023-02-13T09:57:56;103220.00;;;21.64
71649;BMP180;59492;45.638;11.714;2023-02-13T10:00:28;103218.20;;;21.64
71649;BMP180;59492;45.638;11.714;2023-02-13T10:11:26;103213.40;;;21.62
71649;BMP180;59492;45.638;11.714;2023-02-13T10:14:03;103211.80;;;21.60
71649;BMP180;59492;45.638;11.714;2023-02-13T10:16:34;103216.00;;;21.60
71649;BMP180;59492;45.638;11.714;2023-02-13T10:21:50;103214.60;;;21.60
71649;BMP180;59492;45.638;11.714;2023-02-13T10:24:29;103213.80;;;21.60
71649;BMP180;59492;45.638;11.714;2023-02-13T10:26:56;103213.60;;;21.60
71649;BMP180;59492;45.638;11.714;2023-02-13T10:29:35;103212.20;;;21.60
71649;BMP180;59492;45.638;11.714;2023-02-13T10:32:26;103208.40;;;21.60
71649;BMP180;59492;45.638;11.714;2023-02-13T10:34:54;103206.40;;;21.60
71649;BMP180;59492;45.638;11.714;2023-02-13T10:37:22;103204.60;;;21.60
71649;BMP180;59492;45.638;11.714;2023-02-13T10:39:49;103200.00;;;21.52
71649;BMP180;59492;45.638;11.714;2023-02-13T10:42:30;103197.00;;;21.50
71649;BMP180;59492;45.638;11.714;2023-02-13T10:51:24;103199.80;;;21.50
71649;BMP180;59492;45.638;11.714;2023-02-13T11:02:24;103189.60;;;21.40
71649;BMP180;59492;45.638;11.714;2023-02-13T11:04:54;103182.00;;;21.40
71649;BMP180;59492;45.638;11.714;2023-02-13T11:07:23;103178.80;;;21.32
71649;BMP180;59492;45.638;11.714;2023-02-13T11:09:51;103176.20;;;21.30
71649;BMP180;59492;45.638;11.714;2023-02-13T11:15:04;103173.20;;;21.30
71649;BMP180;59492;45.638;11.714;2023-02-13T11:17:34;103166.60;;;21.20
71649;BMP180;59492;45.638;11.714;2023-02-13T11:20:04;103162.20;;;21.20
71649;BMP180;59492;45.638;11.714;2023-02-13T11:22:37;103161.40;;;21.18
71649;BMP180;59492;45.638;11.714;2023-02-13T11:25:17;103164.60;;;21.10
71649;BMP180;59492;45.638;11.714;2023-02-13T11:27:43;103162.20;;;21.10
71649;BMP180;59492;45.638;11.714;2023-02-13T11:33:05;103156.60;;;21.00
71649;BMP180;59492;45.638;11.714;2023-02-13T11:35:35;103155.00;;;21.00
71649;BMP180;59492;45.638;11.714;2023-02-13T11:38:15;103157.80;;;21.00
71649;BMP180;59492;45.638;11.714;2023-02-13T11:41:18;103153.80;;;20.90
71649;BMP180;59492;45.638;11.714;2023-02-13T11:43:48;103152.60;;;20.90
71649;BMP180;59492;45.638;11.714;2023-02-13T11:46:18;103149.40;;;20.80
71649;BMP180;59492;45.638;11.714;2023-02-13T11:48:59;103143.00;;;20.80
71649;BMP180;59492;45.638;11.714;2023-02-13T11:51:39;103145.40;;;20.80
71649;BMP180;59492;45.638;11.714;2023-02-13T11:54:16;103141.00;;;20.70
71649;BMP180;59492;45.638;11.714;2023-02-13T11:56:48;103140.80;;;20.70
71649;BMP180;59492;45.638;11.714;2023-02-13T11:59:14;103139.40;;;20.66
71649;BMP180;59492;45.638;11.714;2023-02-13T12:01:40;103143.80;;;20.60
71649;BMP180;59492;45.638;11.714;2023-02-13T12:04:16;103139.00;;;20.60
71649;BMP180;59492;45.638;11.714;2023-02-13T12:07:36;103134.20;;;20.60
71649;BMP180;59492;45.638;11.714;2023-02-13T12:10:30;103125.40;;;20.50
71649;BMP180;59492;45.638;11.714;2023-02-13T12:13:19;103127.40;;;20.50
71649;BMP180;59492;45.638;11.714;2023-02-13T12:15:46;103127.20;;;20.40
71649;BMP180;59492;45.638;11.714;2023-02-13T12:20:56;103122.20;;;20.30
71649;BMP180;59492;45.638;11.714;2023-02-13T12:23:40;103117.40;;;20.30
71649;BMP180;59492;45.638;11.714;2023-02-13T12:26:19;103114.60;;;20.20
71649;BMP180;59492;45.638;11.714;2023-02-13T12:43:01;103097.80;;;20.00
71649;BMP180;59492;45.638;11.714;2023-02-13T12:45:38;103092.00;;;19.90
71649;BMP180;59492;45.638;11.714;2023-02-13T12:48:22;103086.60;;;19.90
71649;BMP180;59492;45.638;11.714;2023-02-13T12:56:41;103080.20;;;19.70
71649;BMP180;59492;45.638;11.714;2023-02-13T12:59:18;103078.20;;;19.70
71649;BMP180;59492;45.638;11.714;2023-02-13T13:04:48;103083.40;;;19.60
71649;BMP180;59492;45.638;11.714;2023-02-13T13:07:40;103078.20;;;19.60
71649;BMP180;59492;45.638;11.714;2023-02-13T13:15:31;103061.20;;;19.50
71649;BMP180;59492;45.638;11.714;2023-02-13T13:26:32;103048.80;;;19.30
71649;BMP180;59492;45.638;11.714;2023-02-13T13:29:05;103048.40;;;19.30
71649;BMP180;59492;45.638;11.714;2023-02-13T13:31:34;103045.80;;;19.22
71649;BMP180;59492;45.638;11.714;2023-02-13T13:34:03;103043.80;;;19.20
71649;BMP180;59492;45.638;11.714;2023-02-13T13:36:39;103039.40;;;19.20
71649;BMP180;59492;45.638;11.714;2023-02-13T13:39:16;103039.80;;;19.14
71649;BMP180;59492;45.638;11.714;2023-02-13T13:42:03;103038.00;;;19.10
71649;BMP180;59492;45.638;11.714;2023-02-13T13:44:48;103036.60;;;19.10
71649;BMP180;59492;45.638;11.714;2023-02-13T13:49:54;103031.20;;;19.00
71649;BMP180;59492;45.638;11.714;2023-02-13T13:52:25;103029.60;;;19.00
71649;BMP180;59492;45.638;11.714;2023-02-13T13:54:52;103027.20;;;18.92
71649;BMP180;59492;45.638;11.714;2023-02-13T13:57:21;103028.80;;;18.90
71649;BMP180;59492;45.638;11.714;2023-02-13T14:05:02;103020.40;;;18.86
71649;BMP180;59492;45.638;11.714;2023-02-13T14:07:38;103013.60;;;18.80
71649;BMP180;59492;45.638;11.714;2023-02-13T14:13:35;103006.20;;;18.70
71649;BMP180;59492;45.638;11.714;2023-02-13T14:16:02;103007.20;;;18.70
71649;BMP180;59492;45.638;11.714;2023-02-13T14:18:29;103002.60;;;18.70
71649;BMP180;59492;45.638;11.714;2023-02-13T14:20:58;102998.60;;;18.70
71649;BMP180;59492;45.638;11.714;2023-02-13T14:34:27;102996.80;;;18.50
71649;BMP180;59492;45.638;11.714;2023-02-13T14:37:20;102993.20;;;18.50
71649;BMP180;59492;45.638;11.714;2023-02-13T14:42:44;102985.80;;;18.40
71649;BMP180;59492;45.638;11.714;2023-02-13T14:45:26;102987.00;;;18.40
71649;BMP180;59492;45.638;11.714;2023-02-13T14:47:54;102988.00;;;18.36
71649;BMP180;59492;45.638;11.714;2023-02-13T14:50:31;102986.20;;;18.34
71649;BMP180;59492;45.638;11.714;2023-02-13T14:53:04;102988.40;;;18.30
71649;BMP180;59492;45.638;11.714;2023-02-13T14:55:38;102990.80;;;18.30
71649;BMP180;59492;45.638;11.714;2023-02-13T15:01:05;102986.40;;;18.24
71649;BMP180;59492;45.638;11.714;2023-02-13T15:03:35;102985.00;;;18.20
71649;BMP180;59492;45.638;11.714;2023-02-13T15:06:13;102984.60;;;18.20
71649;BMP180;59492;45.638;11.714;2023-02-13T15:08:48;102982.80;;;18.20
71649;BMP180;59492;45.638;11.714;2023-02-13T15:11:41;102973.60;;;18.20
71649;BMP180;59492;45.638;11.714;2023-02-13T15:14:20;102972.80;;;18.10
71649;BMP180;59492;45.638;11.714;2023-02-13T15:17:14;102976.40;;;18.10
71649;BMP180;59492;45.638;11.714;2023-02-13T15:19:43;102976.40;;;18.10
71649;BMP180;59492;45.638;11.714;2023-02-13T15:22:28;102975.00;;;18.08
71649;BMP180;59492;45.638;11.714;2023-02-13T15:24:55;102970.20;;;18.00
71649;BMP180;59492;45.638;11.714;2023-02-13T15:27:26;102969.60;;;18.00
71649;BMP180;59492;45.638;11.714;2023-02-13T15:29:57;102973.20;;;18.00
71649;BMP180;59492;45.638;11.714;2023-02-13T15:32:30;102967.40;;;17.98
71649;BMP180;59492;45.638;11.714;2023-02-13T15:34:56;102966.00;;;17.90
71649;BMP180;59492;45.638;11.714;2023-02-13T15:37:24;102971.00;;;17.90
71649;BMP180;59492;45.638;11.714;2023-02-13T15:39:49;102969.60;;;17.90
71649;BMP180;59492;45.638;11.714;2023-02-13T15:42:15;102968.60;;;17.86
71649;BMP180;59492;45.638;11.714;2023-02-13T15:44:44;102970.40;;;17.80
71649;BMP180;59492;45.638;11.714;2023-02-13T15:47:17;102969.40;;;17.80
71649;BMP180;59492;45.638;11.714;2023-02-13T15:49:46;102971.60;;;17.80
71649;BMP180;59492;45.638;11.714;2023-02-13T15:54:52;102972.20;;;17.74
71649;BMP180;59492;45.638;11.714;2023-02-13T15:57:18;102973.00;;;17.70
71649;BMP180;59492;45.638;11.714;2023-02-13T15:59:45;102972.80;;;17.70
71649;BMP180;59492;45.638;11.714;2023-02-13T16:02:17;102975.20;;;17.70
71649;BMP180;59492;45.638;11.714;2023-02-13T16:04:45;102972.60;;;17.70
71649;BMP180;59492;45.638;11.714;2023-02-13T16:07:13;102974.40;;;17.62
71649;BMP180;59492;45.638;11.714;2023-02-13T16:09:39;102968.60;;;17.60
71649;BMP180;59492;45.638;11.714;2023-02-13T16:12:21;102969.00;;;17.60
71649;BMP180;59492;45.638;11.714;2023-02-13T16:14:52;102970.60;;;17.60
71649;BMP180;59492;45.638;11.714;2023-02-13T16:17:32;102970.80;;;17.58
71649;BMP180;59492;45.638;11.714;2023-02-13T16:20:18;102967.00;;;17.50
71649;BMP180;59492;45.638;11.714;2023-02-13T16:23:15;102970.40;;;17.50
71649;BMP180;59492;45.638;11.714;2023-02-13T16:25:41;102971.40;;;17.44